createdAt,value
2022-12-03T00:01:23.199Z,99775.80
2022-12-03T00:03:51.045Z,99774.20
2022-12-03T00:06:19.108Z,99777.20
2022-12-03T00:08:46.964Z,99780.80
2022-12-03T00:11:14.561Z,99781.00
2022-12-03T00:13:42.282Z,99778.40
2022-12-03T00:16:10.379Z,99783.80
2022-12-03T00:18:38.168Z,99787.00
2022-12-03T00:21:06.306Z,99783.00
2022-12-03T00:23:40.161Z,99787.20
2022-12-03T00:26:10.116Z,99792.20
2022-12-03T00:28:38.072Z,99792.80
2022-12-03T00:31:06.027Z,99792.80
2022-12-03T00:33:33.818Z,99791.20
2022-12-03T00:36:01.474Z,99789.60
2022-12-03T00:38:29.222Z,99786.60
2022-12-03T00:40:56.873Z,99784.40
2022-12-03T00:43:24.634Z,99784.80
2022-12-03T00:45:52.355Z,99786.80
2022-12-03T00:48:20.084Z,99776.80
2022-12-03T00:50:47.757Z,99781.20
2022-12-03T00:53:15.362Z,99782.80
2022-12-03T00:55:43.113Z,99777.80
2022-12-03T00:58:10.923Z,99774.40
2022-12-03T01:00:38.591Z,99776.00
2022-12-03T01:03:06.329Z,99773.20
2022-12-03T01:05:34.083Z,99773.80
2022-12-03T01:08:01.835Z,99778.60
2022-12-03T01:10:29.929Z,99781.60
2022-12-03T01:12:57.587Z,99779.20
2022-12-03T01:15:25.353Z,99774.40
2022-12-03T01:17:54.279Z,99769.60
2022-12-03T01:20:22.086Z,99766.20
2022-12-03T01:22:49.807Z,99765.00
2022-12-03T01:25:17.963Z,99773.40
2022-12-03T01:27:45.676Z,99769.20
2022-12-03T01:30:14.195Z,99765.60
2022-12-03T01:32:41.946Z,99768.40
2022-12-03T01:35:09.752Z,99772.00
2022-12-03T01:37:37.456Z,99767.20
2022-12-03T01:40:08.980Z,99773.60
2022-12-03T01:42:41.170Z,99775.00
2022-12-03T01:45:23.750Z,99769.00
2022-12-03T01:47:51.623Z,99766.00
2022-12-03T01:50:30.162Z,99762.60
2022-12-03T01:53:01.734Z,99753.40
2022-12-03T01:55:30.148Z,99753.80
2022-12-03T01:58:01.925Z,99755.00
2022-12-03T02:00:30.608Z,99759.80
2022-12-03T02:03:08.406Z,99756.80
2022-12-03T02:05:37.352Z,99755.60
2022-12-03T02:08:34.969Z,99760.00
2022-12-03T02:11:12.755Z,99760.20
2022-12-03T02:13:40.637Z,99766.40
2022-12-03T02:16:09.004Z,99772.40
2022-12-03T02:18:36.743Z,99763.20
2022-12-03T02:21:48.137Z,99761.20
2022-12-03T02:24:31.586Z,99754.40
2022-12-03T02:26:59.294Z,99756.40
2022-12-03T02:29:27.249Z,99755.60
2022-12-03T02:31:55.034Z,99755.40
2022-12-03T02:34:50.540Z,99749.20
2022-12-03T02:37:29.534Z,99768.20
2022-12-03T02:40:04.334Z,99762.40
2022-12-03T02:42:34.907Z,99760.80
2022-12-03T02:45:16.902Z,99759.40
2022-12-03T02:47:51.788Z,99762.60
2022-12-03T02:50:28.450Z,99759.80
2022-12-03T02:52:59.880Z,99762.40
2022-12-03T02:55:35.057Z,99758.40
2022-12-03T02:58:06.606Z,99760.40
2022-12-03T03:00:36.038Z,99754.40
2022-12-03T03:03:06.676Z,99762.60
2022-12-03T03:05:39.123Z,99760.40
2022-12-03T03:08:10.126Z,99754.20
2022-12-03T03:10:40.432Z,99747.80
2022-12-03T03:13:13.975Z,99744.40
2022-12-03T03:15:42.501Z,99741.80
2022-12-03T03:18:13.079Z,99742.20
2022-12-03T03:20:41.577Z,99747.00
2022-12-03T03:23:12.216Z,99742.40
2022-12-03T03:26:03.737Z,99749.20
2022-12-03T03:28:34.380Z,99747.00
2022-12-03T03:31:04.595Z,99748.40
2022-12-03T03:33:33.571Z,99740.20
2022-12-03T03:36:02.112Z,99734.60
2022-12-03T03:38:31.314Z,99744.80
2022-12-03T03:41:03.438Z,99748.00
2022-12-03T03:43:34.751Z,99747.20
2022-12-03T03:46:06.551Z,99754.80
2022-12-03T03:48:35.321Z,99750.40
2022-12-03T03:51:08.991Z,99748.20
2022-12-03T03:53:41.483Z,99739.20
2022-12-03T03:56:10.629Z,99741.40
2022-12-03T03:58:38.829Z,99735.80
2022-12-03T04:01:08.461Z,99736.60
2022-12-03T04:03:36.151Z,99739.40
2022-12-03T04:06:04.071Z,99740.60
2022-12-03T04:08:31.917Z,99735.80
2022-12-03T04:11:18.220Z,99734.40
2022-12-03T04:13:45.941Z,99732.40
2022-12-03T04:16:13.713Z,99738.20
2022-12-03T04:18:44.380Z,99740.80
2022-12-03T04:21:38.325Z,99740.20
2022-12-03T04:24:08.871Z,99736.60
2022-12-03T04:26:56.743Z,99741.00
2022-12-03T04:29:24.529Z,99744.40
2022-12-03T04:32:10.844Z,99744.20
2022-12-03T04:34:57.612Z,99740.20
2022-12-03T04:37:25.430Z,99739.60
2022-12-03T04:39:53.281Z,99741.80
2022-12-03T04:42:21.097Z,99743.80
2022-12-03T04:44:48.765Z,99746.20
2022-12-03T04:47:19.555Z,99747.60
2022-12-03T04:49:51.636Z,99750.60
2022-12-03T04:52:21.121Z,99747.80
2022-12-03T04:54:48.945Z,99736.80
2022-12-03T04:57:16.874Z,99732.40
2022-12-03T04:59:44.590Z,99726.00
2022-12-03T05:02:12.332Z,99731.00
2022-12-03T05:04:40.172Z,99727.20
2022-12-03T05:07:07.898Z,99714.60
2022-12-03T05:09:35.547Z,99718.20
2022-12-03T05:12:04.022Z,99716.60
2022-12-03T05:14:31.621Z,99719.40
2022-12-03T05:16:59.380Z,99717.20
2022-12-03T05:19:47.052Z,99723.20
2022-12-03T05:22:14.783Z,99721.20
2022-12-03T05:24:42.434Z,99724.20
2022-12-03T05:27:10.356Z,99716.60
2022-12-03T05:29:38.048Z,99717.00
2022-12-03T05:32:05.913Z,99713.60
2022-12-03T05:34:33.541Z,99712.00
2022-12-03T05:37:01.236Z,99716.60
2022-12-03T05:39:29.006Z,99715.20
2022-12-03T05:42:16.125Z,99717.40
2022-12-03T05:44:43.727Z,99710.60
2022-12-03T05:47:11.520Z,99712.60
2022-12-03T05:49:39.227Z,99715.20
2022-12-03T05:52:07.026Z,99715.80
2022-12-03T05:54:34.733Z,99711.60
2022-12-03T05:57:02.395Z,99716.00
2022-12-03T05:59:30.133Z,99716.60
2022-12-03T06:01:58.330Z,99722.60
2022-12-03T06:04:25.960Z,99716.60
2022-12-03T06:06:53.581Z,99720.60
2022-12-03T06:09:21.407Z,99717.20
2022-12-03T06:11:53.489Z,99724.80
2022-12-03T06:14:22.201Z,99724.60
2022-12-03T06:16:49.871Z,99727.20
2022-12-03T06:19:17.936Z,99725.60
2022-12-03T06:21:45.811Z,99734.00
2022-12-03T06:24:13.551Z,99731.60
2022-12-03T06:26:41.191Z,99731.80
2022-12-03T06:29:08.868Z,99732.20
2022-12-03T06:31:36.751Z,99734.20
2022-12-03T06:34:04.603Z,99734.60
2022-12-03T06:36:32.394Z,99734.00
2022-12-03T06:39:00.211Z,99735.20
2022-12-03T06:41:27.906Z,99738.00
2022-12-03T06:43:55.626Z,99745.20
2022-12-03T06:46:23.392Z,99742.00
2022-12-03T06:48:51.039Z,99738.80
2022-12-03T06:51:18.751Z,99742.40
2022-12-03T06:53:46.351Z,99741.40
2022-12-03T06:56:14.212Z,99746.80
2022-12-03T06:58:42.135Z,99754.60
2022-12-03T07:01:09.944Z,99751.20
2022-12-03T07:03:37.872Z,99760.80
2022-12-03T07:06:05.858Z,99752.20
2022-12-03T07:08:33.502Z,99752.00
2022-12-03T07:11:01.120Z,99755.20
2022-12-03T07:13:28.783Z,99757.80
2022-12-03T07:15:56.501Z,99762.40
2022-12-03T07:18:24.219Z,99760.00
2022-12-03T07:20:51.858Z,99759.40
2022-12-03T07:23:19.624Z,99749.60
2022-12-03T07:25:47.331Z,99748.20
2022-12-03T07:28:14.930Z,99750.40
2022-12-03T07:30:42.702Z,99747.20
2022-12-03T07:33:10.367Z,99740.60
2022-12-03T07:35:38.091Z,99746.60
2022-12-03T07:38:06.474Z,99750.60
2022-12-03T07:40:34.164Z,99747.20
2022-12-03T07:43:01.911Z,99743.20
2022-12-03T07:45:29.725Z,99746.80
2022-12-03T07:47:57.480Z,99748.80
2022-12-03T07:50:28.357Z,99751.40
2022-12-03T07:52:56.425Z,99748.60
2022-12-03T07:55:25.248Z,99749.80
2022-12-03T07:57:53.124Z,99744.20
2022-12-03T08:00:21.728Z,99751.60
2022-12-03T08:02:49.589Z,99745.40
2022-12-03T08:05:17.477Z,99740.20
2022-12-03T08:07:45.217Z,99745.20
2022-12-03T08:10:13.084Z,99748.40
2022-12-03T08:12:40.863Z,99736.20
2022-12-03T08:15:17.529Z,99731.00
2022-12-03T08:17:53.264Z,99723.80
2022-12-03T08:20:24.700Z,99733.60
2022-12-03T08:22:54.618Z,99731.00
2022-12-03T08:25:33.599Z,99731.60
2022-12-03T08:28:25.734Z,99737.40
2022-12-03T08:31:05.750Z,99732.00
2022-12-03T08:33:36.890Z,99729.80
2022-12-03T08:36:22.882Z,99731.80
2022-12-03T08:39:22.499Z,99732.40
2022-12-03T08:42:17.113Z,99739.20
2022-12-03T08:44:45.131Z,99742.20
2022-12-03T08:47:20.423Z,99736.80
2022-12-03T08:49:59.994Z,99733.40
2022-12-03T08:52:33.776Z,99731.00
2022-12-03T08:55:36.046Z,99734.80
2022-12-03T08:58:23.510Z,99725.20
2022-12-03T09:01:08.653Z,99729.20
2022-12-03T09:04:06.684Z,99732.20
2022-12-03T09:06:34.503Z,99736.20
2022-12-03T09:09:06.533Z,99736.80
2022-12-03T09:11:34.733Z,99722.00
2022-12-03T09:14:02.480Z,99721.00
2022-12-03T09:16:30.465Z,99720.40
2022-12-03T09:18:58.313Z,99725.20
2022-12-03T09:21:26.016Z,99727.00
2022-12-03T09:23:53.655Z,99728.40
2022-12-03T09:26:21.362Z,99728.00
2022-12-03T09:28:49.037Z,99733.00
2022-12-03T09:31:18.131Z,99740.00
2022-12-03T09:33:45.871Z,99743.40
2022-12-03T09:36:13.557Z,99750.40
2022-12-03T09:38:46.117Z,99757.20
2022-12-03T09:41:15.830Z,99753.00
2022-12-03T09:44:03.476Z,99752.40
2022-12-03T09:46:32.602Z,99747.00
2022-12-03T09:49:02.485Z,99746.60
2022-12-03T09:51:36.954Z,99746.00
2022-12-03T09:54:07.577Z,99743.60
2022-12-03T09:56:38.849Z,99736.60
2022-12-03T09:59:14.519Z,99733.40
2022-12-03T10:01:42.481Z,99727.20
2022-12-03T10:04:11.056Z,99729.60
2022-12-03T10:06:45.357Z,99725.40
2022-12-03T10:09:22.232Z,99720.00
2022-12-03T10:11:50.088Z,99712.80
2022-12-03T10:14:20.265Z,99707.20
2022-12-03T10:16:48.650Z,99702.80
2022-12-03T10:19:23.850Z,99699.80
2022-12-03T10:21:52.132Z,99710.00
2022-12-03T10:24:30.559Z,99711.80
2022-12-03T10:27:21.714Z,99711.20
2022-12-03T10:30:01.639Z,99711.20
2022-12-03T10:32:48.360Z,99707.60
2022-12-03T10:35:26.889Z,99702.00
2022-12-03T10:38:15.299Z,99711.80
2022-12-03T10:40:43.042Z,99706.20
2022-12-03T10:43:19.700Z,99703.20
2022-12-03T10:46:13.222Z,99713.40
2022-12-03T10:48:41.111Z,99705.00
2022-12-03T10:51:22.306Z,99702.20
2022-12-03T10:53:51.058Z,99701.20
2022-12-03T10:56:26.725Z,99697.80
2022-12-03T10:58:55.343Z,99697.60
2022-12-03T11:01:26.350Z,99687.60
2022-12-03T11:04:02.915Z,99691.00
2022-12-03T11:06:34.864Z,99693.60
2022-12-03T11:09:08.819Z,99689.80
2022-12-03T11:11:37.127Z,99681.00
2022-12-03T11:14:05.671Z,99686.80
2022-12-03T11:16:39.337Z,99688.40
2022-12-03T11:19:13.257Z,99686.60
2022-12-03T11:22:06.189Z,99682.80
2022-12-03T11:24:37.400Z,99685.20
2022-12-03T11:27:06.977Z,99686.20
2022-12-03T11:29:56.100Z,99684.40
2022-12-03T11:32:39.709Z,99694.80
2022-12-03T11:35:15.871Z,99692.60
2022-12-03T11:37:43.613Z,99686.00
2022-12-03T11:40:17.463Z,99684.40
2022-12-03T11:42:48.353Z,99683.20
2022-12-03T11:45:30.341Z,99685.80
2022-12-03T11:47:58.056Z,99669.40
2022-12-03T11:50:50.820Z,99665.60
2022-12-03T11:53:28.860Z,99668.20
2022-12-03T11:56:09.088Z,99657.80
2022-12-03T11:58:42.466Z,99664.60
2022-12-03T12:01:10.152Z,99662.40
2022-12-03T12:03:50.085Z,99662.00
2022-12-03T12:06:21.810Z,99650.80
2022-12-03T12:08:52.409Z,99638.20
2022-12-03T12:11:35.740Z,99642.40
2022-12-03T12:14:12.136Z,99633.00
2022-12-03T12:16:52.446Z,99620.40
2022-12-03T12:19:52.664Z,99633.60
2022-12-03T12:22:25.280Z,99635.00
2022-12-03T12:25:00.946Z,99640.60
2022-12-03T12:27:36.463Z,99637.20
2022-12-03T12:30:19.724Z,99641.00
2022-12-03T12:32:59.244Z,99637.60
2022-12-03T12:35:32.924Z,99645.60
2022-12-03T12:38:11.269Z,99650.00
2022-12-03T12:40:44.961Z,99646.20
2022-12-03T12:43:29.566Z,99646.20
2022-12-03T12:46:38.578Z,99649.40
2022-12-03T12:48:59.358Z,99648.80
2022-12-03T12:51:27.522Z,99643.80
2022-12-03T12:53:57.360Z,99647.80
2022-12-03T12:56:27.413Z,99648.00
2022-12-03T12:59:01.039Z,99646.80
2022-12-03T13:01:32.129Z,99648.80
2022-12-03T13:04:00.068Z,99648.20
2022-12-03T13:06:31.901Z,99651.80
2022-12-03T13:09:02.520Z,99647.40
2022-12-03T13:11:35.121Z,99646.00
2022-12-03T13:14:15.335Z,99649.20
2022-12-03T13:16:44.411Z,99650.00
2022-12-03T13:19:22.922Z,99654.80
2022-12-03T13:21:54.322Z,99647.80
2022-12-03T13:24:44.369Z,99646.40
2022-12-03T13:27:18.145Z,99645.40
2022-12-03T13:30:00.810Z,99648.20
2022-12-03T13:32:33.947Z,99638.40
2022-12-03T13:35:17.403Z,99627.60
2022-12-03T13:37:45.179Z,99634.80
2022-12-03T13:40:36.056Z,99632.00
2022-12-03T13:43:21.811Z,99629.40
2022-12-03T13:45:54.254Z,99631.00
2022-12-03T13:48:27.597Z,99627.20
2022-12-03T13:50:56.123Z,99632.60
2022-12-03T13:53:38.527Z,99631.80
2022-12-03T13:56:33.089Z,99629.20
2022-12-03T13:59:01.602Z,99630.00
2022-12-03T14:01:30.510Z,99626.20
2022-12-03T14:03:58.293Z,99634.20
2022-12-03T14:06:26.096Z,99633.40
2022-12-03T14:08:54.509Z,99641.80
2022-12-03T14:11:41.056Z,99639.00
2022-12-03T14:14:09.188Z,99640.60
2022-12-03T14:16:36.912Z,99638.80
2022-12-03T14:19:04.969Z,99639.00
2022-12-03T14:21:32.687Z,99641.00
2022-12-03T14:24:00.398Z,99639.60
2022-12-03T14:26:28.227Z,99645.20
2022-12-03T14:28:55.928Z,99643.80
2022-12-03T14:31:23.621Z,99648.80
2022-12-03T14:33:51.336Z,99648.60
2022-12-03T14:36:18.993Z,99644.60
2022-12-03T14:38:46.693Z,99648.20
2022-12-03T14:41:33.171Z,99647.00
2022-12-03T14:44:00.870Z,99642.40
2022-12-03T14:46:28.696Z,99636.40
2022-12-03T14:48:56.485Z,99636.60
2022-12-03T14:51:24.296Z,99641.60
2022-12-03T14:53:51.953Z,99635.80
2022-12-03T14:56:19.932Z,99639.40
2022-12-03T14:58:47.580Z,99637.20
2022-12-03T15:01:15.385Z,99639.60
2022-12-03T15:03:43.176Z,99640.40
2022-12-03T15:06:11.011Z,99641.40
2022-12-03T15:08:38.682Z,99648.60
2022-12-03T15:11:06.610Z,99646.40
2022-12-03T15:13:34.396Z,99645.00
2022-12-03T15:16:03.211Z,99650.20
2022-12-03T15:18:31.184Z,99657.40
2022-12-03T15:20:58.845Z,99653.00
2022-12-03T15:23:26.544Z,99653.20
2022-12-03T15:25:54.277Z,99650.60
2022-12-03T15:28:23.224Z,99649.80
2022-12-03T15:30:51.375Z,99653.40
2022-12-03T15:33:19.657Z,99643.00
2022-12-03T15:35:47.539Z,99651.60
2022-12-03T15:38:15.569Z,99646.40
2022-12-03T15:40:43.631Z,99652.00
2022-12-03T15:43:11.533Z,99656.60
2022-12-03T15:45:39.252Z,99654.20
2022-12-03T15:48:06.948Z,99658.60
2022-12-03T15:50:39.858Z,99655.80
2022-12-03T15:53:07.889Z,99650.80
2022-12-03T15:55:35.681Z,99656.40
2022-12-03T15:58:03.414Z,99641.20
2022-12-03T16:00:31.081Z,99641.60
2022-12-03T16:02:58.819Z,99641.80
2022-12-03T16:05:27.109Z,99636.20
2022-12-03T16:07:54.914Z,99633.40
2022-12-03T16:10:22.692Z,99631.60
2022-12-03T16:12:50.565Z,99634.20
2022-12-03T16:15:22.111Z,99631.60
2022-12-03T16:17:52.961Z,99632.80
2022-12-03T16:20:20.642Z,99634.00
2022-12-03T16:22:48.387Z,99637.60
2022-12-03T16:25:16.174Z,99648.00
2022-12-03T16:27:43.926Z,99653.00
2022-12-03T16:30:12.567Z,99649.00
2022-12-03T16:32:40.201Z,99649.80
2022-12-03T16:35:08.710Z,99644.60
2022-12-03T16:37:36.366Z,99646.60
2022-12-03T16:40:04.745Z,99642.00
2022-12-03T16:42:32.407Z,99645.20
2022-12-03T16:45:03.074Z,99652.80
2022-12-03T16:47:34.280Z,99649.60
2022-12-03T16:50:05.110Z,99643.60
2022-12-03T16:52:32.743Z,99642.40
2022-12-03T16:55:00.590Z,99656.00
2022-12-03T16:57:33.389Z,99645.60
2022-12-03T17:00:01.881Z,99646.40
2022-12-03T17:02:29.707Z,99639.80
2022-12-03T17:04:57.507Z,99650.20
2022-12-03T17:07:25.250Z,99645.80
2022-12-03T17:09:53.380Z,99650.40
2022-12-03T17:12:21.242Z,99643.80
2022-12-03T17:14:48.967Z,99646.00
2022-12-03T17:17:16.717Z,99650.60
2022-12-03T17:19:44.449Z,99650.40
2022-12-03T17:22:12.170Z,99647.40
2022-12-03T17:24:39.949Z,99640.80
2022-12-03T17:27:08.115Z,99640.60
2022-12-03T17:29:35.793Z,99643.20
2022-12-03T17:32:03.666Z,99643.20
2022-12-03T17:34:31.777Z,99639.80
2022-12-03T17:36:59.497Z,99632.80
2022-12-03T17:39:27.142Z,99632.60
2022-12-03T17:41:54.814Z,99636.20
2022-12-03T17:44:22.505Z,99629.80
2022-12-03T17:46:50.898Z,99632.60
2022-12-03T17:49:18.898Z,99635.40
2022-12-03T17:51:46.591Z,99631.40
2022-12-03T17:54:14.301Z,99620.80
2022-12-03T17:56:43.649Z,99625.00
2022-12-03T17:59:13.467Z,99618.00
2022-12-03T18:01:41.714Z,99614.40
2022-12-03T18:04:10.311Z,99619.00
2022-12-03T18:06:38.264Z,99612.20
2022-12-03T18:09:06.560Z,99621.80
2022-12-03T18:11:34.295Z,99621.20
2022-12-03T18:14:02.464Z,99617.20
2022-12-03T18:16:30.304Z,99618.60
2022-12-03T18:19:02.034Z,99616.20
2022-12-03T18:21:35.013Z,99617.60
2022-12-03T18:24:03.424Z,99616.40
2022-12-03T18:26:31.188Z,99617.60
2022-12-03T18:28:58.776Z,99611.00
2022-12-03T18:31:26.694Z,99612.60
2022-12-03T18:33:54.536Z,99608.80
2022-12-03T18:36:29.904Z,99604.80
2022-12-03T18:39:00.476Z,99608.20
2022-12-03T18:41:28.973Z,99607.60
2022-12-03T18:43:56.701Z,99607.20
2022-12-03T18:46:51.954Z,99604.80
2022-12-03T18:49:13.542Z,99602.00
2022-12-03T18:51:41.151Z,99606.80
2022-12-03T18:54:14.056Z,99600.40
2022-12-03T18:56:41.691Z,99611.80
2022-12-03T18:59:10.377Z,99604.80
2022-12-03T19:01:38.189Z,99605.00
2022-12-03T19:04:05.948Z,99609.60
2022-12-03T19:06:33.648Z,99604.80
2022-12-03T19:09:01.435Z,99604.00
2022-12-03T19:11:29.221Z,99609.40
2022-12-03T19:13:59.217Z,99607.00
2022-12-03T19:16:27.046Z,99603.60
2022-12-03T19:18:56.189Z,99606.00
2022-12-03T19:21:23.983Z,99604.20
2022-12-03T19:26:39.235Z,99604.80
2022-12-03T19:29:07.031Z,99607.20
2022-12-03T19:31:35.838Z,99604.80
2022-12-03T19:34:04.195Z,99601.80
2022-12-03T19:36:33.006Z,99605.40
2022-12-03T19:39:01.569Z,99607.20
2022-12-03T19:41:32.583Z,99611.60
2022-12-03T19:44:00.656Z,99616.80
2022-12-03T19:46:30.247Z,99614.40
2022-12-03T19:48:58.924Z,99615.80
2022-12-03T19:51:36.009Z,99612.00
2022-12-03T19:54:06.573Z,99606.40
2022-12-03T19:56:35.263Z,99606.40
2022-12-03T19:59:05.052Z,99611.40
2022-12-03T20:01:36.018Z,99612.00
2022-12-03T20:04:04.201Z,99599.60
2022-12-03T20:06:35.950Z,99596.80
2022-12-03T20:09:12.036Z,99597.60
2022-12-03T20:11:42.701Z,99597.00
2022-12-03T20:14:15.245Z,99596.40
2022-12-03T20:16:45.076Z,99591.40
2022-12-03T20:19:17.280Z,99589.80
2022-12-03T20:21:45.078Z,99588.80
2022-12-03T20:24:16.580Z,99591.20
2022-12-03T20:26:45.034Z,99593.60
2022-12-03T20:29:13.051Z,99597.40
2022-12-03T20:31:40.761Z,99594.60
2022-12-03T20:34:10.564Z,99590.20
2022-12-03T20:36:39.355Z,99590.40
2022-12-03T20:39:08.344Z,99585.80
2022-12-03T20:41:36.868Z,99594.40
2022-12-03T20:44:07.383Z,99593.00
2022-12-03T20:46:36.430Z,99589.20
2022-12-03T20:49:04.810Z,99595.40
2022-12-03T20:51:32.800Z,99586.00
2022-12-03T20:54:01.998Z,99589.60
2022-12-03T20:56:35.392Z,99592.60
2022-12-03T20:59:13.389Z,99595.00
2022-12-03T21:01:42.883Z,99591.60
2022-12-03T21:04:18.022Z,99593.40
2022-12-03T21:06:46.039Z,99586.20
2022-12-03T21:09:14.368Z,99584.60
2022-12-03T21:11:42.718Z,99589.80
2022-12-03T21:14:11.324Z,99590.60
2022-12-03T21:17:06.544Z,99589.80
2022-12-03T21:19:28.055Z,99590.60
2022-12-03T21:21:55.738Z,99595.40
2022-12-03T21:24:23.404Z,99592.00
2022-12-03T21:26:51.076Z,99600.80
2022-12-03T21:29:18.744Z,99597.60
2022-12-03T21:31:46.692Z,99594.20
2022-12-03T21:34:14.451Z,99602.20
2022-12-03T21:36:42.231Z,99599.20
2022-12-03T21:39:09.896Z,99594.00
2022-12-03T21:41:37.573Z,99598.20
2022-12-03T21:44:05.476Z,99593.60
2022-12-03T21:47:10.409Z,99595.20
2022-12-03T21:49:22.684Z,99589.40
2022-12-03T21:51:50.510Z,99596.40
2022-12-03T21:54:18.508Z,99591.40
2022-12-03T21:56:46.167Z,99593.20
2022-12-03T21:59:14.714Z,99587.80
2022-12-03T22:01:46.897Z,99583.00
2022-12-03T22:04:15.056Z,99580.20
2022-12-03T22:06:43.162Z,99580.40
2022-12-03T22:09:10.776Z,99575.00
2022-12-03T22:11:38.867Z,99570.60
2022-12-03T22:14:08.184Z,99565.80
2022-12-03T22:16:36.099Z,99559.20
2022-12-03T22:19:04.347Z,99563.20
2022-12-03T22:21:32.064Z,99562.00
2022-12-03T22:23:59.794Z,99562.40
2022-12-03T22:26:27.525Z,99555.80
2022-12-03T22:28:55.262Z,99555.20
2022-12-03T22:31:22.958Z,99551.60
2022-12-03T22:33:50.761Z,99550.80
2022-12-03T22:36:21.442Z,99555.80
2022-12-03T22:38:51.058Z,99554.80
2022-12-03T22:41:20.280Z,99552.00
2022-12-03T22:43:48.701Z,99542.20
2022-12-03T22:46:17.512Z,99545.20
2022-12-03T22:48:47.047Z,99537.60
2022-12-03T22:51:26.001Z,99542.20
2022-12-03T22:54:00.070Z,99541.80
2022-12-03T22:56:30.492Z,99544.60
2022-12-03T22:58:58.346Z,99545.60
2022-12-03T23:01:37.066Z,99547.20
2022-12-03T23:04:06.523Z,99554.40
2022-12-03T23:06:36.852Z,99546.80
2022-12-03T23:09:06.949Z,99547.40
2022-12-03T23:11:34.980Z,99543.60
2022-12-03T23:14:03.699Z,99551.60
2022-12-03T23:16:34.358Z,99548.20
2022-12-03T23:19:03.507Z,99549.80
2022-12-03T23:21:34.148Z,99545.00
2022-12-03T23:24:05.354Z,99532.00
2022-12-03T23:26:37.906Z,99536.20
2022-12-03T23:29:08.518Z,99536.00
2022-12-03T23:31:36.505Z,99533.60
2022-12-03T23:34:04.938Z,99539.60
2022-12-03T23:36:34.319Z,99539.60
2022-12-03T23:39:02.097Z,99535.40
2022-12-03T23:41:29.877Z,99528.20
2022-12-03T23:43:57.815Z,99529.40
2022-12-03T23:46:27.528Z,99531.80
2022-12-03T23:48:55.637Z,99529.40
2022-12-03T23:51:25.140Z,99530.60
2022-12-03T23:53:55.428Z,99531.60
2022-12-03T23:56:30.965Z,99536.60
2022-12-03T23:58:59.010Z,99545.00
